sensor_id;sensor_type;location;lat;lon;timestamp;P1;durP1;ratioP1;P2;durP2;ratioP2
78453;SDS011;67750;55.832;49.124;2023-04-15T00:01:15;2.40;;;0.85;;
78453;SDS011;67750;55.832;49.124;2023-04-15T00:03:45;4.17;;;0.95;;
78453;SDS011;67750;55.832;49.124;2023-04-15T00:06:15;1.57;;;0.72;;
78453;SDS011;67750;55.832;49.124;2023-04-15T00:08:45;1.77;;;0.90;;
78453;SDS011;67750;55.832;49.124;2023-04-15T00:11:15;2.08;;;0.70;;
78453;SDS011;67750;55.832;49.124;2023-04-15T00:13:45;3.52;;;1.25;;
78453;SDS011;67750;55.832;49.124;2023-04-15T00:16:15;2.02;;;0.75;;
78453;SDS011;67750;55.832;49.124;2023-04-15T00:18:44;1.87;;;1.02;;
78453;SDS011;67750;55.832;49.124;2023-04-15T00:21:14;2.22;;;0.80;;
78453;SDS011;67750;55.832;49.124;2023-04-15T00:23:43;1.60;;;0.65;;
78453;SDS011;67750;55.832;49.124;2023-04-15T00:26:14;2.85;;;0.80;;
78453;SDS011;67750;55.832;49.124;2023-04-15T00:28:45;1.90;;;0.88;;
78453;SDS011;67750;55.832;49.124;2023-04-15T00:31:15;2.02;;;0.80;;
78453;SDS011;67750;55.832;49.124;2023-04-15T00:33:45;1.47;;;0.60;;
78453;SDS011;67750;55.832;49.124;2023-04-15T00:36:15;3.50;;;1.05;;
78453;SDS011;67750;55.832;49.124;2023-04-15T00:38:45;3.85;;;1.10;;
78453;SDS011;67750;55.832;49.124;2023-04-15T00:41:14;5.65;;;0.95;;
78453;SDS011;67750;55.832;49.124;2023-04-15T00:43:45;1.20;;;0.60;;
78453;SDS011;67750;55.832;49.124;2023-04-15T00:46:15;3.65;;;0.93;;
78453;SDS011;67750;55.832;49.124;2023-04-15T00:48:46;2.05;;;0.70;;
78453;SDS011;67750;55.832;49.124;2023-04-15T00:51:16;2.15;;;1.00;;
78453;SDS011;67750;55.832;49.124;2023-04-15T00:53:45;3.08;;;1.05;;
78453;SDS011;67750;55.832;49.124;2023-04-15T00:56:15;3.83;;;0.85;;
78453;SDS011;67750;55.832;49.124;2023-04-15T00:58:45;4.33;;;1.10;;
78453;SDS011;67750;55.832;49.124;2023-04-15T01:01:14;2.17;;;0.88;;
78453;SDS011;67750;55.832;49.124;2023-04-15T01:03:43;4.00;;;1.10;;
78453;SDS011;67750;55.832;49.124;2023-04-15T01:06:13;1.45;;;0.80;;
78453;SDS011;67750;55.832;49.124;2023-04-15T01:08:44;2.02;;;0.90;;
78453;SDS011;67750;55.832;49.124;2023-04-15T01:11:13;3.10;;;0.75;;
78453;SDS011;67750;55.832;49.124;2023-04-15T01:13:43;1.80;;;0.80;;
78453;SDS011;67750;55.832;49.124;2023-04-15T01:16:13;3.10;;;0.85;;
78453;SDS011;67750;55.832;49.124;2023-04-15T01:18:43;3.62;;;0.98;;
78453;SDS011;67750;55.832;49.124;2023-04-15T01:21:12;3.47;;;0.98;;
78453;SDS011;67750;55.832;49.124;2023-04-15T01:23:42;2.90;;;1.00;;
78453;SDS011;67750;55.832;49.124;2023-04-15T01:26:13;3.35;;;0.90;;
78453;SDS011;67750;55.832;49.124;2023-04-15T01:28:45;4.55;;;1.07;;
78453;SDS011;67750;55.832;49.124;2023-04-15T01:31:14;2.50;;;1.02;;
78453;SDS011;67750;55.832;49.124;2023-04-15T01:33:44;3.42;;;0.82;;
78453;SDS011;67750;55.832;49.124;2023-04-15T01:36:34;2.70;;;1.20;;
78453;SDS011;67750;55.832;49.124;2023-04-15T01:39:03;3.25;;;1.15;;
78453;SDS011;67750;55.832;49.124;2023-04-15T01:41:32;2.35;;;0.90;;
78453;SDS011;67750;55.832;49.124;2023-04-15T01:44:03;1.82;;;0.80;;
78453;SDS011;67750;55.832;49.124;2023-04-15T01:46:34;2.37;;;0.80;;
78453;SDS011;67750;55.832;49.124;2023-04-15T01:49:05;3.08;;;0.93;;
78453;SDS011;67750;55.832;49.124;2023-04-15T01:51:35;2.15;;;0.70;;
78453;SDS011;67750;55.832;49.124;2023-04-15T01:54:06;4.45;;;0.90;;
78453;SDS011;67750;55.832;49.124;2023-04-15T01:56:37;1.98;;;0.70;;
78453;SDS011;67750;55.832;49.124;2023-04-15T01:59:09;1.87;;;0.90;;
78453;SDS011;67750;55.832;49.124;2023-04-15T02:01:39;1.75;;;0.80;;
78453;SDS011;67750;55.832;49.124;2023-04-15T02:04:11;2.05;;;0.90;;
78453;SDS011;67750;55.832;49.124;2023-04-15T02:06:43;2.45;;;0.90;;
78453;SDS011;67750;55.832;49.124;2023-04-15T02:09:14;3.15;;;0.90;;
78453;SDS011;67750;55.832;49.124;2023-04-15T02:11:45;4.70;;;1.25;;
78453;SDS011;67750;55.832;49.124;2023-04-15T02:14:17;1.55;;;0.82;;
78453;SDS011;67750;55.832;49.124;2023-04-15T02:16:48;1.57;;;0.80;;
78453;SDS011;67750;55.832;49.124;2023-04-15T02:19:19;4.42;;;1.30;;
78453;SDS011;67750;55.832;49.124;2023-04-15T02:21:49;7.65;;;1.27;;
78453;SDS011;67750;55.832;49.124;2023-04-15T02:24:20;4.22;;;1.30;;
78453;SDS011;67750;55.832;49.124;2023-04-15T02:26:51;6.17;;;1.12;;
78453;SDS011;67750;55.832;49.124;2023-04-15T02:29:22;2.00;;;0.80;;
78453;SDS011;67750;55.832;49.124;2023-04-15T02:31:53;1.92;;;1.00;;
78453;SDS011;67750;55.832;49.124;2023-04-15T02:34:23;2.30;;;0.98;;
78453;SDS011;67750;55.832;49.124;2023-04-15T02:36:56;10.48;;;1.52;;
78453;SDS011;67750;55.832;49.124;2023-04-15T02:39:27;2.77;;;1.10;;
78453;SDS011;67750;55.832;49.124;2023-04-15T02:41:57;2.25;;;1.00;;
78453;SDS011;67750;55.832;49.124;2023-04-15T02:44:28;2.60;;;1.00;;
78453;SDS011;67750;55.832;49.124;2023-04-15T02:47:01;2.85;;;1.10;;
78453;SDS011;67750;55.832;49.124;2023-04-15T02:49:33;1.87;;;0.80;;
78453;SDS011;67750;55.832;49.124;2023-04-15T02:52:04;5.45;;;1.05;;
78453;SDS011;67750;55.832;49.124;2023-04-15T02:54:36;2.35;;;1.00;;
78453;SDS011;67750;55.832;49.124;2023-04-15T02:57:06;3.00;;;0.82;;
78453;SDS011;67750;55.832;49.124;2023-04-15T02:59:37;2.45;;;1.10;;
78453;SDS011;67750;55.832;49.124;2023-04-15T03:02:08;2.98;;;1.40;;
78453;SDS011;67750;55.832;49.124;2023-04-15T03:04:39;4.00;;;0.82;;
78453;SDS011;67750;55.832;49.124;2023-04-15T03:07:09;4.45;;;1.82;;
78453;SDS011;67750;55.832;49.124;2023-04-15T03:09:40;1.70;;;0.95;;
78453;SDS011;67750;55.832;49.124;2023-04-15T03:12:11;4.25;;;0.90;;
78453;SDS011;67750;55.832;49.124;2023-04-15T03:14:42;2.85;;;0.90;;
78453;SDS011;67750;55.832;49.124;2023-04-15T03:17:14;2.83;;;0.98;;
78453;SDS011;67750;55.832;49.124;2023-04-15T03:19:45;2.33;;;1.05;;
78453;SDS011;67750;55.832;49.124;2023-04-15T03:22:16;2.87;;;1.02;;
78453;SDS011;67750;55.832;49.124;2023-04-15T03:24:47;2.45;;;0.80;;
78453;SDS011;67750;55.832;49.124;2023-04-15T03:27:18;1.62;;;0.98;;
78453;SDS011;67750;55.832;49.124;2023-04-15T03:29:48;3.12;;;0.85;;
78453;SDS011;67750;55.832;49.124;2023-04-15T03:32:21;2.40;;;0.93;;
78453;SDS011;67750;55.832;49.124;2023-04-15T03:34:51;3.20;;;1.17;;
78453;SDS011;67750;55.832;49.124;2023-04-15T03:37:22;3.33;;;1.00;;
78453;SDS011;67750;55.832;49.124;2023-04-15T03:39:53;3.47;;;1.07;;
78453;SDS011;67750;55.832;49.124;2023-04-15T03:42:24;2.50;;;0.80;;
78453;SDS011;67750;55.832;49.124;2023-04-15T03:44:54;3.10;;;1.27;;
78453;SDS011;67750;55.832;49.124;2023-04-15T03:47:25;2.85;;;1.07;;
78453;SDS011;67750;55.832;49.124;2023-04-15T03:49:56;5.22;;;1.10;;
78453;SDS011;67750;55.832;49.124;2023-04-15T03:52:26;2.75;;;0.90;;
78453;SDS011;67750;55.832;49.124;2023-04-15T03:54:57;3.83;;;0.98;;
78453;SDS011;67750;55.832;49.124;2023-04-15T03:57:28;1.98;;;1.00;;
78453;SDS011;67750;55.832;49.124;2023-04-15T04:00:00;3.10;;;1.05;;
78453;SDS011;67750;55.832;49.124;2023-04-15T04:02:32;3.42;;;1.32;;
78453;SDS011;67750;55.832;49.124;2023-04-15T04:05:03;5.92;;;1.15;;
78453;SDS011;67750;55.832;49.124;2023-04-15T04:07:34;5.47;;;1.20;;
78453;SDS011;67750;55.832;49.124;2023-04-15T04:10:05;5.55;;;0.90;;
78453;SDS011;67750;55.832;49.124;2023-04-15T04:12:36;3.27;;;1.00;;
78453;SDS011;67750;55.832;49.124;2023-04-15T04:15:07;2.15;;;0.70;;
78453;SDS011;67750;55.832;49.124;2023-04-15T04:17:38;1.82;;;1.00;;
78453;SDS011;67750;55.832;49.124;2023-04-15T04:20:09;2.58;;;0.95;;
78453;SDS011;67750;55.832;49.124;2023-04-15T04:22:40;2.92;;;0.82;;
78453;SDS011;67750;55.832;49.124;2023-04-15T04:25:10;2.33;;;1.30;;
78453;SDS011;67750;55.832;49.124;2023-04-15T04:27:42;4.92;;;1.47;;
78453;SDS011;67750;55.832;49.124;2023-04-15T04:30:12;5.40;;;1.57;;
78453;SDS011;67750;55.832;49.124;2023-04-15T04:32:43;2.60;;;0.88;;
78453;SDS011;67750;55.832;49.124;2023-04-15T04:35:14;4.37;;;0.90;;
78453;SDS011;67750;55.832;49.124;2023-04-15T04:37:45;3.00;;;1.00;;
78453;SDS011;67750;55.832;49.124;2023-04-15T04:40:15;5.22;;;1.47;;
78453;SDS011;67750;55.832;49.124;2023-04-15T04:42:46;2.25;;;1.12;;
78453;SDS011;67750;55.832;49.124;2023-04-15T04:45:17;5.42;;;1.20;;
78453;SDS011;67750;55.832;49.124;2023-04-15T04:47:48;3.75;;;1.10;;
78453;SDS011;67750;55.832;49.124;2023-04-15T04:50:19;1.75;;;0.70;;
78453;SDS011;67750;55.832;49.124;2023-04-15T04:52:50;3.12;;;1.07;;
78453;SDS011;67750;55.832;49.124;2023-04-15T04:55:20;2.08;;;1.00;;
78453;SDS011;67750;55.832;49.124;2023-04-15T04:57:51;3.12;;;1.10;;
78453;SDS011;67750;55.832;49.124;2023-04-15T05:00:22;4.75;;;0.78;;
78453;SDS011;67750;55.832;49.124;2023-04-15T05:02:53;6.35;;;1.00;;
78453;SDS011;67750;55.832;49.124;2023-04-15T05:05:24;3.67;;;0.95;;
78453;SDS011;67750;55.832;49.124;2023-04-15T05:07:55;2.33;;;0.85;;
78453;SDS011;67750;55.832;49.124;2023-04-15T05:10:25;2.85;;;1.20;;
78453;SDS011;67750;55.832;49.124;2023-04-15T05:12:56;3.87;;;1.47;;
78453;SDS011;67750;55.832;49.124;2023-04-15T05:15:27;2.45;;;1.00;;
78453;SDS011;67750;55.832;49.124;2023-04-15T05:17:58;6.30;;;1.35;;
78453;SDS011;67750;55.832;49.124;2023-04-15T05:20:29;3.55;;;0.75;;
78453;SDS011;67750;55.832;49.124;2023-04-15T05:23:00;4.33;;;1.10;;
78453;SDS011;67750;55.832;49.124;2023-04-15T05:25:30;1.65;;;0.80;;
78453;SDS011;67750;55.832;49.124;2023-04-15T05:28:01;4.87;;;1.25;;
78453;SDS011;67750;55.832;49.124;2023-04-15T05:30:32;3.42;;;0.90;;
78453;SDS011;67750;55.832;49.124;2023-04-15T05:33:03;3.80;;;0.90;;
78453;SDS011;67750;55.832;49.124;2023-04-15T05:35:34;2.27;;;0.90;;
78453;SDS011;67750;55.832;49.124;2023-04-15T05:38:04;3.02;;;1.12;;
78453;SDS011;67750;55.832;49.124;2023-04-15T05:40:35;4.00;;;1.10;;
78453;SDS011;67750;55.832;49.124;2023-04-15T05:43:06;2.58;;;1.00;;
78453;SDS011;67750;55.832;49.124;2023-04-15T05:45:37;3.05;;;0.98;;
78453;SDS011;67750;55.832;49.124;2023-04-15T05:48:08;3.02;;;1.10;;
78453;SDS011;67750;55.832;49.124;2023-04-15T05:53:29;4.10;;;1.30;;
78453;SDS011;67750;55.832;49.124;2023-04-15T05:56:00;2.55;;;1.25;;
78453;SDS011;67750;55.832;49.124;2023-04-15T05:58:30;4.03;;;0.90;;
78453;SDS011;67750;55.832;49.124;2023-04-15T06:01:01;3.90;;;0.95;;
78453;SDS011;67750;55.832;49.124;2023-04-15T06:06:02;6.67;;;1.20;;
78453;SDS011;67750;55.832;49.124;2023-04-15T06:08:33;4.35;;;1.17;;
78453;SDS011;67750;55.832;49.124;2023-04-15T06:11:04;7.40;;;1.20;;
78453;SDS011;67750;55.832;49.124;2023-04-15T06:13:35;8.60;;;1.20;;
78453;SDS011;67750;55.832;49.124;2023-04-15T06:16:06;4.95;;;1.02;;
78453;SDS011;67750;55.832;49.124;2023-04-15T06:18:36;4.17;;;1.40;;
78453;SDS011;67750;55.832;49.124;2023-04-15T06:21:07;4.37;;;1.15;;
78453;SDS011;67750;55.832;49.124;2023-04-15T06:23:38;6.70;;;1.12;;
78453;SDS011;67750;55.832;49.124;2023-04-15T06:26:09;1.87;;;1.05;;
78453;SDS011;67750;55.832;49.124;2023-04-15T06:28:40;3.90;;;1.12;;
78453;SDS011;67750;55.832;49.124;2023-04-15T06:31:10;5.97;;;1.25;;
78453;SDS011;67750;55.832;49.124;2023-04-15T06:33:41;3.08;;;1.10;;
78453;SDS011;67750;55.832;49.124;2023-04-15T06:36:12;3.10;;;1.32;;
78453;SDS011;67750;55.832;49.124;2023-04-15T06:38:42;3.02;;;1.10;;
78453;SDS011;67750;55.832;49.124;2023-04-15T06:41:13;4.22;;;1.10;;
78453;SDS011;67750;55.832;49.124;2023-04-15T06:43:44;8.23;;;0.90;;
78453;SDS011;67750;55.832;49.124;2023-04-15T06:46:14;6.33;;;1.30;;
78453;SDS011;67750;55.832;49.124;2023-04-15T06:48:45;4.92;;;1.30;;
78453;SDS011;67750;55.832;49.124;2023-04-15T06:51:16;3.15;;;1.00;;
78453;SDS011;67750;55.832;49.124;2023-04-15T06:53:46;3.83;;;1.22;;
78453;SDS011;67750;55.832;49.124;2023-04-15T06:56:17;2.40;;;1.07;;
78453;SDS011;67750;55.832;49.124;2023-04-15T06:58:49;8.23;;;2.02;;
78453;SDS011;67750;55.832;49.124;2023-04-15T07:01:19;6.17;;;1.75;;
78453;SDS011;67750;55.832;49.124;2023-04-15T07:03:50;4.60;;;1.30;;
78453;SDS011;67750;55.832;49.124;2023-04-15T07:06:21;5.15;;;1.47;;
78453;SDS011;67750;55.832;49.124;2023-04-15T07:08:52;5.05;;;1.20;;
78453;SDS011;67750;55.832;49.124;2023-04-15T07:13:52;1.87;;;0.90;;
78453;SDS011;67750;55.832;49.124;2023-04-15T07:16:23;3.08;;;0.88;;
78453;SDS011;67750;55.832;49.124;2023-04-15T07:18:54;1.65;;;0.70;;
78453;SDS011;67750;55.832;49.124;2023-04-15T07:21:24;3.83;;;1.10;;
78453;SDS011;67750;55.832;49.124;2023-04-15T07:23:55;3.42;;;1.10;;
78453;SDS011;67750;55.832;49.124;2023-04-15T07:26:26;4.33;;;1.15;;
78453;SDS011;67750;55.832;49.124;2023-04-15T07:28:57;3.15;;;1.30;;
78453;SDS011;67750;55.832;49.124;2023-04-15T07:31:27;2.42;;;0.90;;
78453;SDS011;67750;55.832;49.124;2023-04-15T07:33:58;3.40;;;1.10;;
78453;SDS011;67750;55.832;49.124;2023-04-15T07:36:29;2.65;;;0.80;;
78453;SDS011;67750;55.832;49.124;2023-04-15T07:39:00;4.42;;;1.05;;
78453;SDS011;67750;55.832;49.124;2023-04-15T07:41:31;3.02;;;1.07;;
78453;SDS011;67750;55.832;49.124;2023-04-15T07:44:02;4.30;;;1.10;;
78453;SDS011;67750;55.832;49.124;2023-04-15T07:46:33;5.60;;;1.10;;
78453;SDS011;67750;55.832;49.124;2023-04-15T07:49:04;2.83;;;0.88;;
78453;SDS011;67750;55.832;49.124;2023-04-15T07:51:35;4.35;;;1.07;;
78453;SDS011;67750;55.832;49.124;2023-04-15T07:54:05;6.05;;;1.00;;
78453;SDS011;67750;55.832;49.124;2023-04-15T07:56:36;4.20;;;1.15;;
78453;SDS011;67750;55.832;49.124;2023-04-15T07:59:07;3.55;;;1.00;;
78453;SDS011;67750;55.832;49.124;2023-04-15T08:01:39;2.95;;;1.12;;
78453;SDS011;67750;55.832;49.124;2023-04-15T08:04:10;3.98;;;1.00;;
78453;SDS011;67750;55.832;49.124;2023-04-15T08:06:40;5.10;;;0.90;;
78453;SDS011;67750;55.832;49.124;2023-04-15T08:09:11;3.20;;;0.88;;
78453;SDS011;67750;55.832;49.124;2023-04-15T08:11:42;5.83;;;1.20;;
78453;SDS011;67750;55.832;49.124;2023-04-15T08:14:12;1.65;;;0.88;;
78453;SDS011;67750;55.832;49.124;2023-04-15T08:16:43;3.05;;;1.20;;
78453;SDS011;67750;55.832;49.124;2023-04-15T08:19:14;2.17;;;0.90;;
78453;SDS011;67750;55.832;49.124;2023-04-15T08:21:45;5.08;;;1.25;;
78453;SDS011;67750;55.832;49.124;2023-04-15T08:24:15;4.78;;;0.95;;
78453;SDS011;67750;55.832;49.124;2023-04-15T08:26:46;2.10;;;0.90;;
78453;SDS011;67750;55.832;49.124;2023-04-15T08:29:17;3.55;;;1.27;;
78453;SDS011;67750;55.832;49.124;2023-04-15T08:31:48;2.85;;;0.75;;
78453;SDS011;67750;55.832;49.124;2023-04-15T08:34:19;4.80;;;1.17;;
78453;SDS011;67750;55.832;49.124;2023-04-15T08:36:51;2.98;;;1.07;;
78453;SDS011;67750;55.832;49.124;2023-04-15T08:39:22;2.85;;;0.93;;
78453;SDS011;67750;55.832;49.124;2023-04-15T08:44:44;3.60;;;0.95;;
78453;SDS011;67750;55.832;49.124;2023-04-15T08:47:15;6.47;;;1.15;;
78453;SDS011;67750;55.832;49.124;2023-04-15T08:49:48;3.58;;;0.90;;
78453;SDS011;67750;55.832;49.124;2023-04-15T08:52:20;2.83;;;1.37;;
78453;SDS011;67750;55.832;49.124;2023-04-15T08:54:51;3.20;;;1.32;;
78453;SDS011;67750;55.832;49.124;2023-04-15T08:57:25;2.27;;;1.02;;
78453;SDS011;67750;55.832;49.124;2023-04-15T09:05:36;3.40;;;0.90;;
78453;SDS011;67750;55.832;49.124;2023-04-15T09:08:07;6.17;;;1.15;;
78453;SDS011;67750;55.832;49.124;2023-04-15T09:10:38;3.42;;;0.88;;
78453;SDS011;67750;55.832;49.124;2023-04-15T09:13:09;1.72;;;1.32;;
78453;SDS011;67750;55.832;49.124;2023-04-15T09:15:40;3.67;;;0.82;;
78453;SDS011;67750;55.832;49.124;2023-04-15T09:18:10;4.08;;;1.00;;
78453;SDS011;67750;55.832;49.124;2023-04-15T09:23:12;3.67;;;1.12;;
78453;SDS011;67750;55.832;49.124;2023-04-15T09:25:43;2.67;;;1.00;;
78453;SDS011;67750;55.832;49.124;2023-04-15T09:28:22;2.02;;;0.93;;
78453;SDS011;67750;55.832;49.124;2023-04-15T09:30:47;2.42;;;1.10;;
78453;SDS011;67750;55.832;49.124;2023-04-15T09:33:19;2.00;;;0.90;;
78453;SDS011;67750;55.832;49.124;2023-04-15T09:41:32;2.33;;;0.90;;
78453;SDS011;67750;55.832;49.124;2023-04-15T09:44:03;4.05;;;0.90;;
78453;SDS011;67750;55.832;49.124;2023-04-15T09:54:45;4.05;;;0.80;;
78453;SDS011;67750;55.832;49.124;2023-04-15T09:57:15;3.60;;;0.70;;
78453;SDS011;67750;55.832;49.124;2023-04-15T09:59:46;2.10;;;0.90;;
78453;SDS011;67750;55.832;49.124;2023-04-15T10:02:18;2.92;;;0.80;;
78453;SDS011;67750;55.832;49.124;2023-04-15T10:04:49;2.83;;;0.90;;
78453;SDS011;67750;55.832;49.124;2023-04-15T10:07:21;5.95;;;1.00;;
78453;SDS011;67750;55.832;49.124;2023-04-15T10:09:52;2.85;;;1.10;;
78453;SDS011;67750;55.832;49.124;2023-04-15T10:12:23;1.80;;;0.78;;
78453;SDS011;67750;55.832;49.124;2023-04-15T10:17:44;3.62;;;0.90;;
78453;SDS011;67750;55.832;49.124;2023-04-15T10:20:16;4.15;;;0.85;;
78453;SDS011;67750;55.832;49.124;2023-04-15T10:22:49;2.17;;;0.82;;
78453;SDS011;67750;55.832;49.124;2023-04-15T10:25:20;4.45;;;1.07;;
78453;SDS011;67750;55.832;49.124;2023-04-15T10:27:52;4.20;;;1.10;;
78453;SDS011;67750;55.832;49.124;2023-04-15T10:30:23;2.22;;;0.90;;
78453;SDS011;67750;55.832;49.124;2023-04-15T10:32:54;2.80;;;1.15;;
78453;SDS011;67750;55.832;49.124;2023-04-15T10:35:25;3.77;;;1.07;;
78453;SDS011;67750;55.832;49.124;2023-04-15T10:37:56;2.12;;;1.02;;
78453;SDS011;67750;55.832;49.124;2023-04-15T10:40:28;4.28;;;0.95;;
78453;SDS011;67750;55.832;49.124;2023-04-15T10:42:59;2.52;;;0.90;;
78453;SDS011;67750;55.832;49.124;2023-04-15T10:45:32;2.52;;;0.70;;
78453;SDS011;67750;55.832;49.124;2023-04-15T10:48:22;5.65;;;1.10;;
78453;SDS011;67750;55.832;49.124;2023-04-15T10:53:44;3.65;;;1.17;;
78453;SDS011;67750;55.832;49.124;2023-04-15T10:56:15;3.08;;;1.22;;
78453;SDS011;67750;55.832;49.124;2023-04-15T10:58:46;4.22;;;1.47;;
78453;SDS011;67750;55.832;49.124;2023-04-15T11:01:50;5.05;;;1.02;;
78453;SDS011;67750;55.832;49.124;2023-04-15T11:03:50;3.77;;;1.35;;
78453;SDS011;67750;55.832;49.124;2023-04-15T11:06:21;3.85;;;1.00;;
78453;SDS011;67750;55.832;49.124;2023-04-15T11:17:26;4.35;;;1.10;;
78453;SDS011;67750;55.832;49.124;2023-04-15T11:19:57;3.05;;;1.05;;
78453;SDS011;67750;55.832;49.124;2023-04-15T11:22:28;3.77;;;0.90;;
78453;SDS011;67750;55.832;49.124;2023-04-15T11:24:59;3.80;;;1.00;;
78453;SDS011;67750;55.832;49.124;2023-04-15T11:27:30;4.45;;;1.17;;
78453;SDS011;67750;55.832;49.124;2023-04-15T11:30:00;3.95;;;1.20;;
78453;SDS011;67750;55.832;49.124;2023-04-15T11:32:31;2.72;;;1.37;;
78453;SDS011;67750;55.832;49.124;2023-04-15T11:35:02;4.00;;;1.10;;
78453;SDS011;67750;55.832;49.124;2023-04-15T11:37:32;5.08;;;0.90;;
78453;SDS011;67750;55.832;49.124;2023-04-15T11:40:03;3.98;;;1.30;;
78453;SDS011;67750;55.832;49.124;2023-04-15T11:42:35;2.27;;;0.93;;
78453;SDS011;67750;55.832;49.124;2023-04-15T11:45:06;3.98;;;0.80;;
78453;SDS011;67750;55.832;49.124;2023-04-15T11:47:37;4.33;;;0.95;;
78453;SDS011;67750;55.832;49.124;2023-04-15T11:52:58;3.98;;;1.02;;
78453;SDS011;67750;55.832;49.124;2023-04-15T11:55:29;1.60;;;0.90;;
78453;SDS011;67750;55.832;49.124;2023-04-15T12:03:39;4.37;;;1.05;;
78453;SDS011;67750;55.832;49.124;2023-04-15T12:06:10;2.37;;;1.20;;
78453;SDS011;67750;55.832;49.124;2023-04-15T12:11:33;8.30;;;1.27;;
78453;SDS011;67750;55.832;49.124;2023-04-15T12:17:22;2.17;;;1.05;;
78453;SDS011;67750;55.832;49.124;2023-04-15T12:19:25;2.27;;;0.90;;
78453;SDS011;67750;55.832;49.124;2023-04-15T12:24:24;4.25;;;0.75;;
78453;SDS011;67750;55.832;49.124;2023-04-15T12:26:54;4.97;;;0.95;;
78453;SDS011;67750;55.832;49.124;2023-04-15T12:29:25;7.62;;;1.37;;
78453;SDS011;67750;55.832;49.124;2023-04-15T12:31:55;5.28;;;0.85;;
78453;SDS011;67750;55.832;49.124;2023-04-15T12:37:14;2.25;;;1.02;;
78453;SDS011;67750;55.832;49.124;2023-04-15T12:39:45;2.25;;;0.80;;
78453;SDS011;67750;55.832;49.124;2023-04-15T12:44:44;4.42;;;0.95;;
78453;SDS011;67750;55.832;49.124;2023-04-15T12:47:13;4.47;;;1.00;;
78453;SDS011;67750;55.832;49.124;2023-04-15T12:49:43;4.53;;;1.00;;
78453;SDS011;67750;55.832;49.124;2023-04-15T12:52:13;2.83;;;1.25;;
78453;SDS011;67750;55.832;49.124;2023-04-15T12:54:42;3.05;;;0.70;;
78453;SDS011;67750;55.832;49.124;2023-04-15T12:57:12;2.60;;;0.98;;
78453;SDS011;67750;55.832;49.124;2023-04-15T12:59:42;2.40;;;0.88;;
78453;SDS011;67750;55.832;49.124;2023-04-15T13:02:11;1.90;;;0.78;;
78453;SDS011;67750;55.832;49.124;2023-04-15T13:04:41;2.12;;;0.90;;
78453;SDS011;67750;55.832;49.124;2023-04-15T13:07:11;3.67;;;1.15;;
78453;SDS011;67750;55.832;49.124;2023-04-15T13:09:41;2.90;;;1.37;;
78453;SDS011;67750;55.832;49.124;2023-04-15T13:12:11;4.97;;;1.45;;
78453;SDS011;67750;55.832;49.124;2023-04-15T13:14:41;2.55;;;1.20;;
78453;SDS011;67750;55.832;49.124;2023-04-15T13:17:10;8.88;;;1.30;;
78453;SDS011;67750;55.832;49.124;2023-04-15T13:19:40;4.35;;;1.10;;
78453;SDS011;67750;55.832;49.124;2023-04-15T13:22:09;4.15;;;1.10;;
78453;SDS011;67750;55.832;49.124;2023-04-15T13:24:40;2.75;;;0.88;;
78453;SDS011;67750;55.832;49.124;2023-04-15T13:27:10;4.42;;;1.05;;
78453;SDS011;67750;55.832;49.124;2023-04-15T13:29:40;3.10;;;0.88;;
78453;SDS011;67750;55.832;49.124;2023-04-15T13:32:09;2.65;;;1.00;;
78453;SDS011;67750;55.832;49.124;2023-04-15T13:34:39;3.58;;;1.10;;
78453;SDS011;67750;55.832;49.124;2023-04-15T13:37:08;1.67;;;0.90;;
78453;SDS011;67750;55.832;49.124;2023-04-15T13:39:38;2.65;;;1.10;;
78453;SDS011;67750;55.832;49.124;2023-04-15T13:42:07;2.60;;;1.15;;
78453;SDS011;67750;55.832;49.124;2023-04-15T13:44:37;2.40;;;1.20;;
78453;SDS011;67750;55.832;49.124;2023-04-15T13:47:06;3.67;;;1.10;;
78453;SDS011;67750;55.832;49.124;2023-04-15T13:49:36;2.85;;;1.40;;
78453;SDS011;67750;55.832;49.124;2023-04-15T13:52:05;7.92;;;1.25;;
78453;SDS011;67750;55.832;49.124;2023-04-15T13:54:35;1.98;;;1.02;;
78453;SDS011;67750;55.832;49.124;2023-04-15T13:57:04;3.52;;;1.22;;
78453;SDS011;67750;55.832;49.124;2023-04-15T13:59:34;3.90;;;1.15;;
78453;SDS011;67750;55.832;49.124;2023-04-15T14:02:04;5.97;;;1.20;;
78453;SDS011;67750;55.832;49.124;2023-04-15T14:04:33;4.12;;;1.10;;
78453;SDS011;67750;55.832;49.124;2023-04-15T14:07:03;2.50;;;1.10;;
78453;SDS011;67750;55.832;49.124;2023-04-15T14:09:33;2.98;;;1.15;;
78453;SDS011;67750;55.832;49.124;2023-04-15T14:12:03;2.80;;;1.00;;
78453;SDS011;67750;55.832;49.124;2023-04-15T14:14:32;2.77;;;1.00;;
78453;SDS011;67750;55.832;49.124;2023-04-15T14:17:02;3.22;;;1.20;;
78453;SDS011;67750;55.832;49.124;2023-04-15T14:19:32;2.27;;;1.20;;
78453;SDS011;67750;55.832;49.124;2023-04-15T14:22:02;2.92;;;1.42;;
78453;SDS011;67750;55.832;49.124;2023-04-15T14:24:32;2.33;;;1.25;;
78453;SDS011;67750;55.832;49.124;2023-04-15T14:27:01;5.45;;;1.40;;
78453;SDS011;67750;55.832;49.124;2023-04-15T14:29:31;4.97;;;1.92;;
78453;SDS011;67750;55.832;49.124;2023-04-15T14:32:00;6.05;;;2.05;;
78453;SDS011;67750;55.832;49.124;2023-04-15T14:34:30;5.03;;;2.00;;
78453;SDS011;67750;55.832;49.124;2023-04-15T14:36:59;7.30;;;1.90;;
78453;SDS011;67750;55.832;49.124;2023-04-15T14:39:29;4.28;;;1.70;;
78453;SDS011;67750;55.832;49.124;2023-04-15T14:41:58;4.50;;;1.60;;
78453;SDS011;67750;55.832;49.124;2023-04-15T14:44:28;6.72;;;2.22;;
78453;SDS011;67750;55.832;49.124;2023-04-15T14:46:57;4.50;;;1.95;;
78453;SDS011;67750;55.832;49.124;2023-04-15T14:49:27;4.37;;;1.20;;
78453;SDS011;67750;55.832;49.124;2023-04-15T14:51:56;3.33;;;1.50;;
78453;SDS011;67750;55.832;49.124;2023-04-15T14:54:26;10.08;;;1.45;;
78453;SDS011;67750;55.832;49.124;2023-04-15T14:56:56;3.27;;;1.47;;
78453;SDS011;67750;55.832;49.124;2023-04-15T14:59:25;3.10;;;1.35;;
78453;SDS011;67750;55.832;49.124;2023-04-15T15:01:55;6.25;;;1.40;;
78453;SDS011;67750;55.832;49.124;2023-04-15T15:04:24;3.85;;;1.50;;
78453;SDS011;67750;55.832;49.124;2023-04-15T15:06:54;3.70;;;1.47;;
78453;SDS011;67750;55.832;49.124;2023-04-15T15:09:23;5.28;;;1.90;;
78453;SDS011;67750;55.832;49.124;2023-04-15T15:11:53;3.17;;;1.45;;
78453;SDS011;67750;55.832;49.124;2023-04-15T15:14:23;4.45;;;1.65;;
78453;SDS011;67750;55.832;49.124;2023-04-15T15:16:52;3.60;;;1.60;;
78453;SDS011;67750;55.832;49.124;2023-04-15T15:19:22;5.47;;;1.82;;
78453;SDS011;67750;55.832;49.124;2023-04-15T15:21:51;4.05;;;1.80;;
78453;SDS011;67750;55.832;49.124;2023-04-15T15:24:21;5.17;;;1.72;;
78453;SDS011;67750;55.832;49.124;2023-04-15T15:26:51;4.08;;;1.60;;
78453;SDS011;67750;55.832;49.124;2023-04-15T15:29:20;3.42;;;1.77;;
78453;SDS011;67750;55.832;49.124;2023-04-15T15:31:50;3.83;;;1.35;;
78453;SDS011;67750;55.832;49.124;2023-04-15T15:34:19;3.15;;;1.40;;
78453;SDS011;67750;55.832;49.124;2023-04-15T15:36:49;5.97;;;1.92;;
78453;SDS011;67750;55.832;49.124;2023-04-15T15:39:18;6.67;;;1.77;;
78453;SDS011;67750;55.832;49.124;2023-04-15T15:41:48;3.02;;;1.60;;
78453;SDS011;67750;55.832;49.124;2023-04-15T15:44:18;6.33;;;1.62;;
78453;SDS011;67750;55.832;49.124;2023-04-15T15:46:48;5.25;;;2.10;;
78453;SDS011;67750;55.832;49.124;2023-04-15T15:49:18;8.78;;;2.20;;
78453;SDS011;67750;55.832;49.124;2023-04-15T15:51:47;6.17;;;2.60;;
78453;SDS011;67750;55.832;49.124;2023-04-15T15:54:17;7.25;;;2.75;;
78453;SDS011;67750;55.832;49.124;2023-04-15T15:56:47;6.40;;;4.00;;
78453;SDS011;67750;55.832;49.124;2023-04-15T15:59:16;6.40;;;3.83;;
78453;SDS011;67750;55.832;49.124;2023-04-15T16:01:46;6.03;;;3.12;;